Yellowknife, Northwest Territories

8:35 AM MDT on April 19, 2015 (GMT -0600)
Yellowknife | | Change Station
CLOSE
Current Station
Airport
Location: Yellowknife,
Elevation: 673 ft
Nearby Weather Stations

Elev 673 ft 62.46 °N, 114.44 °W | Updated 35 minutes ago

Scattered Clouds
Scattered Clouds
30 °F
Feels Like 25 °F
N
5
Wind Variable Wind from SE

Today
High -- | Low -- °F
--% Chance of Precip.
Yesterday
High -- | Low -- °F
Precip. -- in
6:00 AM 9:15 PM
New Moon, 1% visible
Pressure 30.15 in
Visibility 15.0 miles
Clouds Few 6000 ft
Scattered Clouds 10000 ft
Windchill 25 °F
Dew Point 21 °F
Humidity 69%
Rainfall 0.00 in
Snow Depth Not available.
UV 1 out of 12
Pollen Not available.
Air Quality Not available.
Flu Activity Not available.
METAR CYZF 191400Z 13004KT 15SM FEW060 SCT100 M01/M06 A3010 RMK SC1ACC3 SLP208

More Conditions Fewer Conditions

Pressure 30.15 in
Visibility 15.0 miles
Clouds Few 6000 ft
Scattered Clouds 10000 ft
Windchill 25 °F
Dew Point 21 °F
Humidity 69%
Rainfall 0.00 in
Snow Depth Not available.
UV 1 out of 12
Pollen Not available.
Air Quality Not available.
Flu Activity Not available.
METAR CYZF 191400Z 13004KT 15SM FEW060 SCT100 M01/M06 A3010 RMK SC1ACC3 SLP208

More Conditions Fewer Conditions

10-Day Weather Forecast

Almanac

Astronomy

Apr. 19, 2015 Rise Set
Actual Time
Civil Twilight
Nautical Twilight
Astronomical Twilight
Moon
Length of Visible Light
Length of Day
Tomorrow will be .
, % of the Moon is Illuminated

Today's Extremes

Country Highs Country Lows

Community

WunderPhotos

Upload Photos

1,814,824 photos uploaded!

WunderBlogs® & News

Nearby

Air Quality

  Air Quality AQ Index Pollutant
Not available.

Snow Depth

Station Depth Elevation

Earthquake Activity

City Distance Mag. Time & Date
Minimum magnitude displayed is 2.5.

Coastal Water Temperatures

Place Temperature

Stations

Nearby Weather Stations

Station Location Temp. Windchill Dew Point Humidity Wind Precip. Elev Updated Type